createdAt,value
2022-07-28T00:02:19.135Z,19.82
2022-07-28T00:04:52.316Z,19.76
2022-07-28T00:07:26.371Z,19.76
2022-07-28T00:10:00.723Z,19.75
2022-07-28T00:12:35.661Z,19.71
2022-07-28T00:15:09.778Z,19.65
2022-07-28T00:17:42.963Z,19.69
2022-07-28T00:20:16.076Z,19.61
2022-07-28T00:22:49.441Z,19.54
2022-07-28T00:25:22.606Z,19.53
2022-07-28T00:27:57.031Z,19.50
2022-07-28T00:30:30.670Z,19.51
2022-07-28T00:33:04.705Z,19.48
2022-07-28T00:35:38.273Z,19.48
2022-07-28T00:38:11.405Z,19.26
2022-07-28T00:41:02.151Z,19.21
2022-07-28T00:43:36.611Z,19.21
2022-07-28T00:46:10.416Z,19.07
2022-07-28T00:48:46.428Z,19.04
2022-07-28T00:51:22.249Z,18.95
2022-07-28T00:53:56.626Z,18.92
2022-07-28T00:56:29.824Z,18.98
2022-07-28T00:59:04.394Z,18.93
2022-07-28T01:01:37.542Z,18.82
2022-07-28T01:04:10.961Z,18.84
2022-07-28T01:07:09.801Z,18.82
2022-07-28T01:10:02.822Z,18.78
2022-07-28T01:12:51.980Z,18.74
2022-07-28T01:15:31.688Z,18.66
2022-07-28T01:18:08.176Z,18.61
2022-07-28T01:20:48.181Z,18.60
2022-07-28T01:24:11.879Z,18.51
2022-07-28T01:26:57.215Z,18.50
2022-07-28T01:29:59.631Z,18.43
2022-07-28T01:32:40.312Z,18.50
2022-07-28T01:35:18.279Z,18.44
2022-07-28T01:37:56.814Z,18.39
2022-07-28T01:40:35.257Z,18.15
2022-07-28T01:43:13.561Z,18.14
2022-07-28T01:45:47.611Z,18.17
2022-07-28T01:48:25.347Z,18.15
2022-07-28T01:50:59.642Z,18.09
2022-07-28T01:53:37.783Z,18.08
2022-07-28T01:56:12.645Z,18.02
2022-07-28T01:58:47.043Z,18.03
2022-07-28T02:01:21.816Z,17.95
2022-07-28T02:03:59.678Z,17.84
2022-07-28T02:06:34.361Z,17.83
2022-07-28T02:09:09.404Z,17.86
2022-07-28T02:11:44.453Z,17.89
2022-07-28T02:14:22.218Z,17.88
2022-07-28T02:17:00.088Z,17.84
2022-07-28T02:19:36.343Z,17.84
2022-07-28T02:22:11.160Z,17.78
2022-07-28T02:24:46.173Z,17.74
2022-07-28T02:27:24.884Z,17.66
2022-07-28T02:30:05.844Z,17.63
2022-07-28T02:32:46.672Z,17.66
2022-07-28T02:35:27.936Z,17.54
2022-07-28T02:38:11.475Z,17.49
2022-07-28T02:40:46.201Z,17.45
2022-07-28T02:43:49.417Z,17.32
2022-07-28T02:46:27.278Z,17.29
2022-07-28T02:49:07.854Z,17.28
2022-07-28T02:51:44.731Z,17.21
2022-07-28T02:54:20.939Z,17.13
2022-07-28T02:56:55.525Z,17.06
2022-07-28T02:59:30.209Z,17.04
2022-07-28T03:02:04.366Z,17.07
2022-07-28T03:04:55.653Z,17.11
2022-07-28T03:07:32.444Z,17.06
2022-07-28T03:10:06.751Z,17.07
2022-07-28T03:12:39.807Z,17.06
2022-07-28T03:15:12.943Z,17.06
2022-07-28T03:17:46.111Z,16.98
2022-07-28T03:20:20.474Z,16.88
2022-07-28T03:22:55.340Z,16.91
2022-07-28T03:25:35.328Z,16.91
2022-07-28T03:28:15.025Z,16.87
2022-07-28T03:30:55.182Z,16.88
2022-07-28T03:33:29.059Z,16.87
2022-07-28T03:36:08.209Z,16.80
2022-07-28T03:38:48.134Z,16.86
2022-07-28T03:41:24.194Z,16.78
2022-07-28T03:44:00.145Z,16.69
2022-07-28T03:46:33.793Z,16.75
2022-07-28T03:49:09.318Z,16.77
2022-07-28T03:51:43.072Z,16.80
2022-07-28T03:54:17.688Z,16.81
2022-07-28T03:56:50.785Z,16.73
2022-07-28T03:59:24.559Z,16.62
2022-07-28T04:01:57.683Z,16.58
2022-07-28T04:04:31.513Z,16.60
2022-07-28T04:07:04.712Z,16.58
2022-07-28T04:09:39.181Z,16.59
2022-07-28T04:12:12.296Z,16.63
2022-07-28T04:14:45.848Z,16.63
2022-07-28T04:17:18.952Z,16.66
2022-07-28T04:19:52.057Z,16.66
2022-07-28T04:22:25.888Z,16.71
2022-07-28T04:25:01.764Z,16.77
2022-07-28T04:27:36.779Z,16.88
2022-07-28T04:30:13.404Z,16.96
2022-07-28T04:32:47.978Z,17.03
2022-07-28T04:35:24.106Z,17.04
2022-07-28T04:37:58.626Z,17.09
2022-07-28T04:40:34.360Z,17.16
2022-07-28T04:43:07.530Z,17.24
2022-07-28T04:45:45.899Z,17.29
2022-07-28T04:48:26.378Z,17.29
2022-07-28T04:50:59.460Z,17.27
2022-07-28T04:53:32.656Z,17.33
2022-07-28T04:56:07.318Z,17.35
2022-07-28T04:58:40.427Z,17.40
2022-07-28T05:01:16.212Z,17.41
2022-07-28T05:03:49.373Z,17.48
2022-07-28T05:06:22.479Z,17.61
2022-07-28T05:08:55.554Z,17.70
2022-07-28T05:11:30.051Z,17.68
2022-07-28T05:14:03.436Z,17.89
2022-07-28T05:16:36.649Z,18.01
2022-07-28T05:19:11.149Z,18.24
2022-07-28T05:21:44.267Z,18.42
2022-07-28T05:24:17.662Z,18.70
2022-07-28T05:26:52.241Z,19.28
2022-07-28T05:29:26.094Z,19.84
2022-07-28T05:32:16.652Z,20.57
2022-07-28T05:34:50.921Z,21.05
2022-07-28T05:37:24.050Z,21.63
2022-07-28T05:39:57.167Z,22.00
2022-07-28T05:42:35.860Z,22.40
2022-07-28T05:45:17.109Z,22.58
2022-07-28T05:47:53.364Z,22.52
2022-07-28T05:50:26.426Z,23.13
2022-07-28T05:52:59.851Z,22.65
2022-07-28T05:55:33.328Z,23.11
2022-07-28T05:58:07.801Z,23.42
2022-07-28T06:00:41.238Z,23.58
2022-07-28T06:03:14.489Z,23.68
2022-07-28T06:05:58.368Z,23.92
2022-07-28T06:08:40.790Z,24.24
2022-07-28T06:11:22.061Z,24.18
2022-07-28T06:13:57.377Z,24.21
2022-07-28T06:16:30.568Z,24.38
2022-07-28T06:19:03.701Z,24.72
2022-07-28T06:21:36.794Z,24.41
2022-07-28T06:24:10.542Z,24.30
2022-07-28T06:26:44.918Z,24.04
2022-07-28T06:29:20.740Z,24.42
2022-07-28T06:31:53.857Z,24.31
2022-07-28T06:34:27.043Z,24.23
2022-07-28T06:37:00.241Z,24.78
2022-07-28T06:39:33.352Z,25.43
2022-07-28T06:42:06.707Z,25.63
2022-07-28T06:44:57.884Z,25.71
2022-07-28T06:47:32.529Z,25.99
2022-07-28T06:50:07.831Z,25.80
2022-07-28T06:52:59.456Z,26.48
2022-07-28T06:55:34.627Z,26.56
2022-07-28T06:58:09.060Z,27.01
2022-07-28T07:00:43.539Z,27.03
2022-07-28T07:03:16.659Z,26.68
2022-07-28T07:05:51.651Z,26.97
2022-07-28T07:08:26.361Z,27.57
2022-07-28T07:11:00.129Z,27.65
2022-07-28T07:13:33.448Z,27.93
2022-07-28T07:16:08.065Z,28.16
2022-07-28T07:18:41.207Z,28.35
2022-07-28T07:21:14.357Z,28.78
2022-07-28T07:23:47.703Z,29.01
2022-07-28T07:26:20.934Z,28.55
2022-07-28T07:28:54.023Z,28.79
2022-07-28T07:31:28.696Z,29.02
2022-07-28T07:34:01.859Z,29.17
2022-07-28T07:36:35.715Z,29.05
2022-07-28T07:39:09.720Z,29.21
2022-07-28T07:41:43.108Z,29.38
2022-07-28T07:44:16.592Z,29.58
2022-07-28T07:46:51.855Z,29.30
2022-07-28T07:49:25.107Z,29.42
2022-07-28T07:52:18.261Z,29.82
2022-07-28T07:54:51.397Z,30.18
2022-07-28T07:57:24.478Z,30.66
2022-07-28T07:59:57.555Z,30.84
2022-07-28T08:02:32.092Z,30.72
2022-07-28T08:05:06.122Z,31.16
2022-07-28T08:07:41.593Z,31.72
2022-07-28T08:10:14.800Z,31.53
2022-07-28T08:12:47.892Z,30.93
2022-07-28T08:15:21.461Z,30.74
2022-07-28T08:17:55.969Z,30.18
2022-07-28T08:20:29.851Z,29.92
2022-07-28T08:23:02.965Z,29.64
2022-07-28T08:25:37.316Z,29.43
2022-07-28T08:28:10.399Z,29.64
2022-07-28T08:30:44.490Z,29.66
2022-07-28T08:33:22.011Z,29.84
2022-07-28T08:35:55.348Z,29.53
2022-07-28T08:38:28.442Z,29.73
2022-07-28T08:41:05.805Z,29.75
2022-07-28T08:43:40.743Z,29.80
2022-07-28T08:46:14.945Z,29.87
2022-07-28T08:48:50.602Z,29.80
2022-07-28T08:51:27.974Z,29.76
2022-07-28T08:54:03.108Z,29.79
2022-07-28T08:56:41.367Z,29.72
2022-07-28T08:59:22.130Z,29.54
2022-07-28T09:01:57.667Z,29.19
2022-07-28T09:04:37.109Z,29.26
2022-07-28T09:07:12.065Z,29.33
2022-07-28T09:09:46.403Z,29.25
2022-07-28T09:12:19.760Z,29.27
2022-07-28T09:15:02.770Z,29.27
2022-07-28T09:17:37.162Z,29.37
2022-07-28T09:20:13.087Z,29.30
2022-07-28T09:22:58.447Z,29.53
2022-07-28T09:25:32.673Z,29.29
2022-07-28T09:28:11.411Z,29.44
2022-07-28T09:30:54.536Z,29.66
2022-07-28T09:33:41.782Z,29.56
2022-07-28T09:36:18.264Z,29.24
2022-07-28T09:38:51.824Z,29.21
2022-07-28T09:41:26.592Z,29.43
2022-07-28T09:43:59.669Z,29.49
2022-07-28T09:46:33.020Z,29.57
2022-07-28T09:49:06.469Z,29.35
2022-07-28T09:51:41.205Z,29.04
2022-07-28T09:54:16.557Z,28.72
2022-07-28T09:56:49.876Z,28.94
2022-07-28T09:59:23.017Z,29.22
2022-07-28T10:01:59.738Z,28.94
2022-07-28T10:04:35.952Z,28.91
2022-07-28T10:07:14.136Z,29.51
2022-07-28T10:09:59.206Z,29.61
2022-07-28T10:12:34.940Z,29.83
2022-07-28T10:15:31.040Z,30.05
2022-07-28T10:18:06.163Z,30.00
2022-07-28T10:20:39.946Z,30.19
2022-07-28T10:23:16.176Z,29.74
2022-07-28T10:25:49.331Z,29.80
2022-07-28T10:28:23.984Z,29.85
2022-07-28T10:31:02.208Z,29.88
2022-07-28T10:33:40.729Z,29.75
2022-07-28T10:36:14.372Z,29.47
2022-07-28T10:38:48.972Z,29.32
2022-07-28T10:41:25.916Z,29.27
2022-07-28T10:44:04.907Z,29.27
2022-07-28T10:46:38.906Z,29.21
2022-07-28T10:49:14.971Z,29.03
2022-07-28T10:52:15.397Z,29.14
2022-07-28T10:54:53.472Z,29.07
2022-07-28T10:57:27.646Z,28.89
2022-07-28T11:00:14.360Z,29.33
2022-07-28T11:02:58.875Z,29.34
2022-07-28T11:05:39.038Z,29.02
2022-07-28T11:08:30.008Z,29.00
2022-07-28T11:11:09.263Z,29.10
2022-07-28T11:13:42.765Z,29.31
2022-07-28T11:16:22.794Z,28.87
2022-07-28T11:19:36.529Z,29.08
2022-07-28T11:22:30.418Z,29.39
2022-07-28T11:25:22.329Z,29.27
2022-07-28T11:28:08.109Z,29.25
2022-07-28T11:30:55.501Z,29.39
2022-07-28T11:33:55.593Z,29.17
2022-07-28T11:37:15.355Z,29.04
2022-07-28T11:39:48.580Z,28.95
2022-07-28T11:42:29.281Z,28.93
2022-07-28T11:45:37.577Z,29.16
2022-07-28T11:48:15.771Z,29.04
2022-07-28T11:51:11.055Z,28.79
2022-07-28T11:53:47.312Z,28.70
2022-07-28T11:56:25.739Z,28.88
2022-07-28T11:59:01.641Z,28.79
2022-07-28T12:01:38.120Z,28.90
2022-07-28T12:04:14.502Z,29.09
2022-07-28T12:06:52.206Z,29.19
2022-07-28T12:09:41.129Z,28.98
2022-07-28T12:12:15.318Z,29.01
2022-07-28T12:14:48.788Z,29.12
2022-07-28T12:17:23.583Z,29.24
2022-07-28T12:19:56.856Z,29.34
2022-07-28T12:22:30.546Z,29.46
2022-07-28T12:25:03.960Z,29.58
2022-07-28T12:27:46.415Z,29.63
2022-07-28T12:30:27.716Z,29.57
2022-07-28T12:33:18.497Z,29.60
2022-07-28T12:35:55.738Z,29.75
2022-07-28T12:38:30.084Z,29.83
2022-07-28T12:41:03.308Z,29.59
2022-07-28T12:43:36.438Z,29.53
2022-07-28T12:46:09.630Z,29.55
2022-07-28T12:48:45.055Z,29.66
2022-07-28T12:51:36.155Z,29.72
2022-07-28T12:54:12.285Z,29.57
2022-07-28T12:56:47.557Z,29.28
2022-07-28T12:59:21.455Z,29.32
2022-07-28T13:01:56.594Z,29.19
2022-07-28T13:04:43.639Z,29.36
2022-07-28T13:07:26.356Z,29.29
2022-07-28T13:10:05.338Z,29.40
2022-07-28T13:12:38.543Z,29.47
2022-07-28T13:15:17.523Z,29.40
2022-07-28T13:17:53.393Z,29.30
2022-07-28T13:20:28.403Z,29.58
2022-07-28T13:23:01.889Z,29.75
2022-07-28T13:25:35.066Z,29.82
2022-07-28T13:28:24.354Z,29.79
2022-07-28T13:30:57.476Z,30.04
2022-07-28T13:33:30.671Z,30.24
2022-07-28T13:36:05.613Z,30.01
2022-07-28T13:38:38.704Z,30.16
2022-07-28T13:41:11.816Z,30.17
2022-07-28T13:43:48.300Z,30.23
2022-07-28T13:46:22.071Z,30.17
2022-07-28T13:48:58.003Z,30.20
2022-07-28T13:51:34.853Z,29.98
2022-07-28T13:54:08.037Z,29.97
2022-07-28T13:56:42.508Z,29.84
2022-07-28T13:59:15.609Z,29.85
2022-07-28T14:01:49.492Z,30.07
2022-07-28T14:04:24.224Z,29.94
2022-07-28T14:06:58.981Z,29.86
2022-07-28T14:09:36.287Z,29.78
2022-07-28T14:12:12.353Z,29.86
2022-07-28T14:14:48.532Z,30.01
2022-07-28T14:17:43.344Z,29.99
2022-07-28T14:20:17.448Z,29.78
2022-07-28T14:22:51.913Z,29.70
2022-07-28T14:25:25.100Z,29.91
2022-07-28T14:27:58.282Z,29.93
2022-07-28T14:30:32.237Z,29.79
2022-07-28T14:33:06.458Z,29.82
2022-07-28T14:35:39.716Z,29.86
2022-07-28T14:38:51.939Z,29.92
2022-07-28T14:41:07.590Z,29.69
2022-07-28T14:43:40.658Z,29.62
2022-07-28T14:46:20.646Z,29.70
2022-07-28T14:48:54.681Z,29.58
2022-07-28T14:51:27.770Z,29.73
2022-07-28T14:54:02.911Z,29.58
2022-07-28T14:56:36.188Z,29.54
2022-07-28T14:59:09.318Z,29.74
2022-07-28T15:04:56.643Z,29.58
2022-07-28T15:07:29.983Z,29.68
2022-07-28T15:10:05.488Z,29.61
2022-07-28T15:12:38.633Z,29.76
2022-07-28T15:15:12.991Z,29.83
2022-07-28T15:17:46.097Z,29.81
2022-07-28T15:20:19.253Z,29.53
2022-07-28T15:22:52.492Z,29.67
2022-07-28T15:25:27.024Z,29.47
2022-07-28T15:28:00.119Z,29.41
2022-07-28T15:30:33.300Z,29.52
2022-07-28T15:33:07.158Z,29.42
2022-07-28T15:35:58.901Z,29.45
2022-07-28T15:38:33.051Z,29.55
2022-07-28T15:41:07.763Z,29.41
2022-07-28T15:43:41.009Z,29.41
2022-07-28T15:46:15.045Z,29.45
2022-07-28T15:48:48.254Z,29.49
2022-07-28T15:51:25.776Z,29.48
2022-07-28T15:54:00.887Z,29.45
2022-07-28T15:56:38.141Z,29.41
2022-07-28T15:59:11.242Z,29.33
2022-07-28T16:01:45.742Z,29.37
2022-07-28T16:04:19.243Z,29.24
2022-07-28T16:07:22.384Z,29.33
2022-07-28T16:09:56.897Z,29.30
2022-07-28T16:12:31.464Z,29.25
2022-07-28T16:15:05.040Z,29.22
2022-07-28T16:17:38.266Z,29.26
2022-07-28T16:20:12.629Z,29.36
2022-07-28T16:22:45.712Z,29.27
2022-07-28T16:25:20.420Z,29.30
2022-07-28T16:27:54.889Z,29.38
2022-07-28T16:30:28.433Z,29.24
2022-07-28T16:33:01.667Z,29.22
2022-07-28T16:35:35.168Z,29.23
2022-07-28T16:38:08.247Z,29.17
2022-07-28T16:40:41.595Z,29.11
2022-07-28T16:43:16.032Z,29.12
2022-07-28T16:45:49.105Z,29.09
2022-07-28T16:48:22.160Z,28.98
2022-07-28T16:50:55.477Z,28.98
2022-07-28T16:53:28.580Z,29.00
2022-07-28T16:56:01.736Z,29.05
2022-07-28T16:58:37.552Z,28.97
2022-07-28T17:01:10.739Z,28.97
2022-07-28T17:03:44.051Z,28.82
2022-07-28T17:06:17.376Z,28.81
2022-07-28T17:08:50.463Z,28.85
2022-07-28T17:11:23.545Z,28.81
2022-07-28T17:13:57.975Z,28.72
2022-07-28T17:16:31.742Z,28.71
2022-07-28T17:19:05.347Z,28.75
2022-07-28T17:21:39.916Z,28.65
2022-07-28T17:24:14.065Z,28.70
2022-07-28T17:29:42.634Z,28.66
2022-07-28T17:32:15.833Z,28.75
2022-07-28T17:34:48.896Z,28.73
2022-07-28T17:37:22.413Z,28.67
2022-07-28T17:39:55.690Z,28.74
2022-07-28T17:42:28.975Z,28.70
2022-07-28T17:45:03.409Z,28.63
2022-07-28T17:47:36.658Z,28.52
2022-07-28T17:50:12.996Z,28.64
2022-07-28T17:52:46.844Z,28.61
2022-07-28T17:55:57.602Z,28.48
2022-07-28T17:58:31.072Z,28.49
2022-07-28T18:01:11.960Z,28.43
2022-07-28T18:03:58.692Z,28.35
2022-07-28T18:06:35.881Z,28.21
2022-07-28T18:09:10.898Z,28.11
2022-07-28T18:11:57.534Z,27.99
2022-07-28T18:14:32.043Z,27.92
2022-07-28T18:17:06.474Z,27.83
2022-07-28T18:19:44.996Z,27.78
2022-07-28T18:22:18.563Z,27.62
2022-07-28T18:24:51.601Z,27.62
2022-07-28T18:27:24.704Z,27.61
2022-07-28T18:29:57.775Z,27.56
2022-07-28T18:32:32.204Z,27.49
2022-07-28T18:35:05.799Z,27.31
2022-07-28T18:37:45.392Z,27.25
2022-07-28T18:40:21.502Z,27.12
2022-07-28T18:42:55.686Z,27.04
2022-07-28T18:45:28.951Z,27.12
2022-07-28T18:48:04.336Z,27.03
2022-07-28T18:50:37.406Z,26.99
2022-07-28T18:53:14.025Z,26.90
2022-07-28T18:55:47.126Z,26.95
2022-07-28T18:58:20.228Z,26.88
2022-07-28T19:00:53.368Z,26.80
2022-07-28T19:03:28.040Z,26.71
2022-07-28T19:06:01.120Z,26.71
2022-07-28T19:08:34.214Z,26.68
2022-07-28T19:11:07.305Z,26.61
2022-07-28T19:13:40.342Z,26.54
2022-07-28T19:16:13.537Z,26.47
2022-07-28T19:18:48.111Z,26.37
2022-07-28T19:21:21.231Z,26.30
2022-07-28T19:23:54.255Z,26.37
2022-07-28T19:26:28.045Z,26.41
2022-07-28T19:29:01.174Z,26.29
2022-07-28T19:31:34.314Z,26.31
2022-07-28T19:34:09.463Z,26.26
2022-07-28T19:36:42.653Z,26.33
2022-07-28T19:39:15.930Z,26.21
2022-07-28T19:41:49.133Z,26.16
2022-07-28T19:44:22.196Z,25.99
2022-07-28T19:46:56.382Z,26.06
2022-07-28T19:49:30.915Z,26.11
2022-07-28T19:52:04.300Z,25.99
2022-07-28T19:54:37.419Z,26.04
2022-07-28T19:57:12.557Z,26.00
2022-07-28T19:59:47.608Z,25.96
2022-07-28T20:02:20.731Z,25.95
2022-07-28T20:04:55.321Z,25.93
2022-07-28T20:07:28.485Z,25.96
2022-07-28T20:10:01.828Z,25.88
2022-07-28T20:12:36.877Z,25.85
2022-07-28T20:15:11.143Z,25.98
2022-07-28T20:17:44.346Z,26.00
2022-07-28T20:20:19.001Z,25.94
2022-07-28T20:22:53.221Z,25.81
2022-07-28T20:25:26.349Z,25.80
2022-07-28T20:27:59.387Z,25.91
2022-07-28T20:30:33.344Z,25.87
2022-07-28T20:33:07.949Z,25.82
2022-07-28T20:35:42.359Z,25.73
2022-07-28T20:38:15.473Z,25.57
2022-07-28T20:40:48.528Z,25.61
2022-07-28T20:43:21.705Z,25.50
2022-07-28T20:45:54.806Z,25.34
2022-07-28T20:48:27.980Z,25.02
2022-07-28T20:51:02.407Z,24.65
2022-07-28T20:53:37.464Z,24.06
2022-07-28T20:56:10.583Z,23.41
2022-07-28T20:58:43.653Z,22.59
2022-07-28T21:01:17.155Z,21.91
2022-07-28T21:03:54.662Z,21.44
2022-07-28T21:06:29.072Z,21.02
2022-07-28T21:09:02.594Z,20.77
2022-07-28T21:11:37.554Z,20.62
2022-07-28T21:14:10.615Z,20.47
2022-07-28T21:16:43.700Z,20.28
2022-07-28T21:19:16.843Z,20.26
2022-07-28T21:21:51.263Z,20.09
2022-07-28T21:24:24.338Z,19.90
2022-07-28T21:26:57.450Z,19.84
2022-07-28T21:29:29.643Z,19.77
2022-07-28T21:32:05.151Z,19.71
2022-07-28T21:34:39.507Z,19.75
2022-07-28T21:37:14.204Z,19.71
2022-07-28T21:39:47.317Z,19.72
2022-07-28T21:42:20.417Z,19.78
2022-07-28T21:44:53.475Z,19.82
2022-07-28T21:47:26.568Z,19.80
2022-07-28T21:49:59.607Z,19.69
2022-07-28T21:52:34.074Z,19.52
2022-07-28T21:55:09.257Z,19.55
2022-07-28T21:57:42.859Z,19.51
2022-07-28T22:00:17.660Z,19.53
2022-07-28T22:02:50.745Z,19.43
2022-07-28T22:05:24.924Z,19.29
2022-07-28T22:07:59.448Z,19.18
2022-07-28T22:10:32.555Z,19.09
2022-07-28T22:13:05.727Z,18.97
2022-07-28T22:15:38.991Z,18.83
2022-07-28T22:18:16.709Z,18.89
2022-07-28T22:20:50.082Z,18.80
2022-07-28T22:23:29.874Z,18.40
2022-07-28T22:26:03.296Z,18.50
2022-07-28T22:28:36.369Z,18.41
2022-07-28T22:31:10.273Z,18.36
2022-07-28T22:33:43.342Z,18.30
2022-07-28T22:36:16.427Z,18.23
2022-07-28T22:38:50.828Z,18.33
2022-07-28T22:41:23.971Z,18.34
2022-07-28T22:43:57.123Z,18.26
2022-07-28T22:46:30.253Z,18.27
2022-07-28T22:49:03.425Z,18.37
2022-07-28T22:51:36.537Z,18.47
2022-07-28T22:54:11.113Z,18.60
2022-07-28T22:56:44.411Z,18.70
2022-07-28T22:59:17.880Z,18.65
2022-07-28T23:01:51.046Z,18.50
2022-07-28T23:04:24.358Z,18.51
2022-07-28T23:06:59.150Z,18.48
2022-07-28T23:09:34.584Z,18.41
2022-07-28T23:12:09.288Z,18.53
2022-07-28T23:14:42.436Z,18.59
2022-07-28T23:17:15.467Z,18.57
2022-07-28T23:19:48.569Z,18.64
2022-07-28T23:22:21.627Z,18.65
2022-07-28T23:24:56.224Z,18.73
2022-07-28T23:27:29.334Z,18.68
2022-07-28T23:30:02.463Z,18.65
2022-07-28T23:32:35.578Z,18.67
2022-07-28T23:35:09.929Z,18.67
2022-07-28T23:37:43.002Z,18.71
2022-07-28T23:40:17.471Z,18.68
2022-07-28T23:42:50.585Z,18.64
2022-07-28T23:45:23.741Z,18.62
2022-07-28T23:47:58.948Z,18.50
2022-07-28T23:50:32.240Z,18.52
2022-07-28T23:53:05.325Z,18.46
2022-07-28T23:55:39.723Z,18.48
2022-07-28T23:58:12.795Z,18.48
